EZY7383 LEPA-LPPR
Flight info
| Callsign | EZY7383 |
|---|---|
| Flight time | N/A |
| Altitude | 35000 |
| Route | EPAMA N733 ZMR L155 ADORO DCT INKIT |
| Aircraft | A319/M-SDE3FGHIRWY/LB1 |
Departure
| Time | 2026-05-01 13:17 |
|---|---|
| Airport | Palma de Mallorca Airport (LEPA) |
Arrival
| Time | N/A |
|---|---|
| Airport | Francisco de Sá Carneiro Airport (LPPR) |
| Time | Latitude | Longitude | Altitude | Speed | Heading |
|---|---|---|---|---|---|
| 2026-05-01 12:27 | 39.55001 | 2.73724 | 39 ft | 0 kts | 239° |
| 2026-05-01 13:07 | 39.55094 | 2.73807 | 38 ft | 4 kts | 149° |
| 2026-05-01 13:07 | 39.55101 | 2.73802 | 34 ft | 0 kts | 149° |
| 2026-05-01 13:12 | 39.55100 | 2.73803 | 38 ft | 1 kts | 149° |
| 2026-05-01 13:12 | 39.55062 | 2.73832 | 37 ft | 14 kts | 149° |
| 2026-05-01 13:12 | 39.54966 | 2.73907 | 38 ft | 17 kts | 149° |
| 2026-05-01 13:12 | 39.54867 | 2.73982 | 38 ft | 15 kts | 156° |
| 2026-05-01 13:13 | 39.54782 | 2.73929 | 38 ft | 16 kts | 237° |
| 2026-05-01 13:13 | 39.54714 | 2.73784 | 36 ft | 21 kts | 239° |
| 2026-05-01 13:13 | 39.54638 | 2.73620 | 38 ft | 20 kts | 238° |
| 2026-05-01 13:13 | 39.54558 | 2.73460 | 38 ft | 22 kts | 237° |
| 2026-05-01 13:14 | 39.54478 | 2.73290 | 38 ft | 22 kts | 239° |
| 2026-05-01 13:14 | 39.54357 | 2.73191 | 36 ft | 21 kts | 210° |
| 2026-05-01 13:14 | 39.54277 | 2.73196 | 38 ft | 12 kts | 117° |
| 2026-05-01 13:14 | 39.54273 | 2.73226 | 38 ft | 0 kts | 98° |
| 2026-05-01 13:15 | 39.54272 | 2.73230 | 38 ft | 1 kts | 98° |
| 2026-05-01 13:15 | 39.54271 | 2.73242 | 38 ft | 2 kts | 98° |
| 2026-05-01 13:15 | 39.54269 | 2.73274 | 38 ft | 6 kts | 92° |
| 2026-05-01 13:15 | 39.54268 | 2.73354 | 38 ft | 10 kts | 91° |
| 2026-05-01 13:16 | 39.54268 | 2.73449 | 38 ft | 11 kts | 84° |
| 2026-05-01 13:16 | 39.54284 | 2.73498 | 38 ft | 0 kts | 61° |
| 2026-05-01 13:16 | 39.54287 | 2.73505 | 38 ft | 2 kts | 60° |
| 2026-05-01 13:17 | 39.55155 | 2.75332 | 316 ft | 139 kts | 60° |
| 2026-05-01 13:17 | 39.55676 | 2.76423 | 783 ft | 148 kts | 60° |
| 2026-05-01 13:18 | 39.56810 | 2.78834 | 1778 ft | 174 kts | 60° |
| 2026-05-01 13:18 | 39.57458 | 2.80246 | 2279 ft | 191 kts | 63° |
| 2026-05-01 13:18 | 39.58139 | 2.81814 | 2850 ft | 204 kts | 62° |
| 2026-05-01 13:18 | 39.58860 | 2.83440 | 3586 ft | 214 kts | 60° |
| 2026-05-01 13:19 | 39.59613 | 2.85110 | 4584 ft | 217 kts | 61° |
| 2026-05-01 13:19 | 39.60379 | 2.86802 | 5536 ft | 219 kts | 63° |
| 2026-05-01 13:19 | 39.62026 | 2.90258 | 7167 ft | 234 kts | 49° |
| 2026-05-01 13:20 | 39.63449 | 2.91308 | 7875 ft | 245 kts | 9° |
| 2026-05-01 13:20 | 39.65113 | 2.90995 | 8648 ft | 246 kts | 329° |
| 2026-05-01 13:20 | 39.66272 | 2.89436 | 9513 ft | 242 kts | 294° |
| 2026-05-01 13:21 | 39.67446 | 2.85358 | 11206 ft | 243 kts | 285° |
| 2026-05-01 13:21 | 39.67880 | 2.83219 | 11901 ft | 246 kts | 281° |
| 2026-05-01 13:21 | 39.68214 | 2.81022 | 12602 ft | 251 kts | 277° |
| 2026-05-01 13:21 | 39.68437 | 2.78763 | 13287 ft | 255 kts | 273° |
| 2026-05-01 13:22 | 39.68567 | 2.76455 | 13994 ft | 259 kts | 275° |
| 2026-05-01 13:22 | 39.68895 | 2.74129 | 14545 ft | 269 kts | 283° |
| 2026-05-01 13:22 | 39.69537 | 2.71736 | 14745 ft | 293 kts | 292° |
| 2026-05-01 13:22 | 39.70393 | 2.69236 | 14925 ft | 316 kts | 293° |
| 2026-05-01 13:23 | 39.71320 | 2.66524 | 15064 ft | 339 kts | 292° |
| 2026-05-01 13:23 | 39.72303 | 2.63637 | 15269 ft | 358 kts | 292° |
| 2026-05-01 13:23 | 39.73320 | 2.60640 | 15809 ft | 365 kts | 293° |
| 2026-05-01 13:23 | 39.74348 | 2.57601 | 16496 ft | 368 kts | 293° |
| 2026-05-01 13:24 | 39.75380 | 2.54547 | 17178 ft | 371 kts | 292° |
| 2026-05-01 13:24 | 39.76422 | 2.51472 | 17852 ft | 373 kts | 292° |
| 2026-05-01 13:24 | 39.77474 | 2.48366 | 18514 ft | 377 kts | 293° |
| 2026-05-01 13:25 | 39.79584 | 2.42102 | 19785 ft | 379 kts | 292° |
| 2026-05-01 13:25 | 39.80645 | 2.38943 | 20329 ft | 383 kts | 292° |
| 2026-05-01 13:25 | 39.81549 | 2.35677 | 20859 ft | 386 kts | 283° |
| 2026-05-01 13:25 | 39.81942 | 2.32234 | 21462 ft | 386 kts | 272° |
| 2026-05-01 13:26 | 39.81811 | 2.28740 | 22010 ft | 388 kts | 260° |
| 2026-05-01 13:26 | 39.81173 | 2.25329 | 22559 ft | 390 kts | 252° |
| 2026-05-01 13:26 | 39.80378 | 2.21936 | 23057 ft | 394 kts | 252° |
| 2026-05-01 13:26 | 39.79573 | 2.18516 | 23565 ft | 397 kts | 252° |
| 2026-05-01 13:27 | 39.78761 | 2.15078 | 24042 ft | 399 kts | 252° |
| 2026-05-01 13:27 | 39.77942 | 2.11613 | 24440 ft | 402 kts | 252° |
| 2026-05-01 13:27 | 39.76285 | 2.04614 | 25240 ft | 408 kts | 252° |
| 2026-05-01 13:28 | 39.74607 | 1.97540 | 26058 ft | 412 kts | 252° |
| 2026-05-01 13:28 | 39.73761 | 1.93966 | 26460 ft | 414 kts | 252° |
| 2026-05-01 13:29 | 39.72055 | 1.86781 | 27254 ft | 418 kts | 252° |
| 2026-05-01 13:29 | 39.70317 | 1.79526 | 28045 ft | 423 kts | 252° |
| 2026-05-01 13:30 | 39.66795 | 1.64814 | 29559 ft | 431 kts | 252° |
| 2026-05-01 13:31 | 39.65296 | 1.58576 | 30148 ft | 434 kts | 252° |
| 2026-05-01 13:31 | 39.62569 | 1.47298 | 31060 ft | 438 kts | 251° |
| 2026-05-01 13:32 | 39.60762 | 1.39774 | 31912 ft | 435 kts | 254° |
| 2026-05-01 13:33 | 39.59766 | 1.28122 | 33209 ft | 432 kts | 264° |
| 2026-05-01 13:33 | 39.59342 | 1.20374 | 34070 ft | 430 kts | 264° |
| 2026-05-01 13:34 | 39.58903 | 1.12672 | 34191 ft | 428 kts | 264° |
| 2026-05-01 13:34 | 39.58457 | 1.04991 | 34200 ft | 428 kts | 264° |
| 2026-05-01 13:35 | 39.57790 | 0.93458 | 34200 ft | 428 kts | 264° |
| 2026-05-01 13:36 | 39.57098 | 0.81932 | 34200 ft | 427 kts | 265° |
| 2026-05-01 13:36 | 39.56400 | 0.70457 | 34194 ft | 425 kts | 266° |
| 2026-05-01 13:37 | 39.55934 | 0.62833 | 34200 ft | 424 kts | 266° |
| 2026-05-01 13:37 | 39.55469 | 0.55215 | 34193 ft | 424 kts | 266° |
| 2026-05-01 13:38 | 39.54757 | 0.43788 | 34203 ft | 424 kts | 266° |
| 2026-05-01 13:39 | 39.54271 | 0.36184 | 34200 ft | 423 kts | 266° |
| 2026-05-01 13:39 | 39.53783 | 0.28604 | 34199 ft | 421 kts | 266° |
| 2026-05-01 13:40 | 39.53309 | 0.21059 | 34198 ft | 420 kts | 267° |
| 2026-05-01 13:40 | 39.52876 | 0.13509 | 34205 ft | 420 kts | 267° |
| 2026-05-01 13:41 | 39.52444 | 0.05963 | 34207 ft | 420 kts | 267° |
| 2026-05-01 13:41 | 39.52010 | -0.01569 | 34200 ft | 419 kts | 268° |
| 2026-05-01 13:42 | 39.51584 | -0.09056 | 34211 ft | 415 kts | 268° |
| 2026-05-01 13:42 | 39.51159 | -0.16503 | 34212 ft | 415 kts | 268° |
| 2026-05-01 13:43 | 39.50733 | -0.23946 | 34213 ft | 415 kts | 268° |
| 2026-05-01 13:43 | 39.50306 | -0.31393 | 34219 ft | 415 kts | 268° |
| 2026-05-01 13:44 | 39.49877 | -0.38835 | 34222 ft | 415 kts | 268° |
| 2026-05-01 13:44 | 39.49446 | -0.46277 | 34222 ft | 414 kts | 268° |
| 2026-05-01 13:45 | 39.49013 | -0.53717 | 34220 ft | 414 kts | 268° |
| 2026-05-01 13:45 | 39.48576 | -0.61207 | 34219 ft | 414 kts | 268° |
| 2026-05-01 13:46 | 39.48142 | -0.68598 | 34214 ft | 414 kts | 268° |
| 2026-05-01 13:46 | 39.47702 | -0.76084 | 34218 ft | 415 kts | 268° |
| 2026-05-01 13:47 | 39.47258 | -0.83532 | 34218 ft | 416 kts | 267° |
| 2026-05-01 13:47 | 39.46809 | -0.91003 | 34218 ft | 416 kts | 267° |
| 2026-05-01 13:47 | 39.46865 | -0.94725 | 34216 ft | 414 kts | 281° |
| 2026-05-01 13:48 | 39.47775 | -0.98237 | 34214 ft | 413 kts | 297° |
| 2026-05-01 13:48 | 39.49434 | -1.01257 | 34209 ft | 415 kts | 313° |
| 2026-05-01 13:48 | 39.51723 | -1.03545 | 34207 ft | 419 kts | 329° |
| 2026-05-01 13:49 | 39.57012 | -1.06804 | 34198 ft | 422 kts | 332° |
| 2026-05-01 13:49 | 39.62323 | -1.10015 | 34196 ft | 421 kts | 332° |
| 2026-05-01 13:50 | 39.67622 | -1.13238 | 34194 ft | 420 kts | 332° |
| 2026-05-01 13:50 | 39.72929 | -1.16489 | 34194 ft | 425 kts | 332° |
| 2026-05-01 13:51 | 39.78163 | -1.20068 | 34191 ft | 424 kts | 322° |
| 2026-05-01 13:51 | 39.82277 | -1.25420 | 34189 ft | 417 kts | 303° |
| 2026-05-01 13:52 | 39.85201 | -1.31923 | 34209 ft | 416 kts | 298° |
| 2026-05-01 13:52 | 39.87995 | -1.38404 | 34208 ft | 416 kts | 298° |
| 2026-05-01 13:53 | 39.90825 | -1.44966 | 34211 ft | 416 kts | 298° |
| 2026-05-01 13:53 | 39.95116 | -1.54924 | 34228 ft | 418 kts | 298° |
| 2026-05-01 13:54 | 39.97938 | -1.61534 | 34226 ft | 421 kts | 298° |
| 2026-05-01 13:54 | 40.00794 | -1.68207 | 34221 ft | 422 kts | 298° |
| 2026-05-01 13:55 | 40.03649 | -1.74879 | 34220 ft | 421 kts | 298° |
| 2026-05-01 13:55 | 40.06467 | -1.81483 | 34223 ft | 420 kts | 298° |
| 2026-05-01 13:56 | 40.09311 | -1.88159 | 34211 ft | 421 kts | 298° |
| 2026-05-01 13:56 | 40.12149 | -1.94862 | 34214 ft | 424 kts | 297° |
| 2026-05-01 13:57 | 40.14533 | -2.00516 | 34197 ft | 426 kts | 297° |
| 2026-05-01 13:57 | 40.17820 | -2.08250 | 34197 ft | 426 kts | 297° |
| 2026-05-01 13:58 | 40.20715 | -2.15020 | 34194 ft | 427 kts | 297° |
| 2026-05-01 13:58 | 40.23594 | -2.21808 | 34206 ft | 426 kts | 297° |
| 2026-05-01 13:59 | 40.26426 | -2.28567 | 34187 ft | 425 kts | 297° |
| 2026-05-01 13:59 | 40.29265 | -2.35389 | 34171 ft | 428 kts | 296° |
| 2026-05-01 14:00 | 40.32112 | -2.42241 | 34174 ft | 428 kts | 297° |
| 2026-05-01 14:00 | 40.34972 | -2.49091 | 34165 ft | 428 kts | 297° |
| 2026-05-01 14:01 | 40.37809 | -2.55918 | 34165 ft | 428 kts | 296° |
| 2026-05-01 14:01 | 40.40560 | -2.62846 | 34150 ft | 428 kts | 295° |
| 2026-05-01 14:02 | 40.43254 | -2.69806 | 34150 ft | 428 kts | 295° |
| 2026-05-01 14:02 | 40.45974 | -2.76808 | 34143 ft | 428 kts | 295° |
| 2026-05-01 14:03 | 40.48678 | -2.83715 | 34145 ft | 428 kts | 295° |
| 2026-05-01 14:03 | 40.51402 | -2.90677 | 34145 ft | 429 kts | 295° |
| 2026-05-01 14:04 | 40.54140 | -2.97700 | 34148 ft | 429 kts | 295° |
| 2026-05-01 14:04 | 40.56391 | -3.03510 | 34144 ft | 429 kts | 295° |
| 2026-05-01 14:05 | 40.59550 | -3.11681 | 34145 ft | 428 kts | 295° |
| 2026-05-01 14:05 | 40.62233 | -3.18646 | 34153 ft | 428 kts | 295° |
| 2026-05-01 14:06 | 40.64912 | -3.25594 | 34155 ft | 428 kts | 295° |
| 2026-05-01 14:06 | 40.67611 | -3.32589 | 34155 ft | 428 kts | 295° |
| 2026-05-01 14:07 | 40.70292 | -3.39572 | 34154 ft | 428 kts | 294° |
| 2026-05-01 14:08 | 40.74269 | -3.50021 | 34152 ft | 425 kts | 294° |
| 2026-05-01 14:08 | 40.76504 | -3.55894 | 34154 ft | 425 kts | 294° |
| 2026-05-01 14:09 | 40.79160 | -3.62850 | 34152 ft | 425 kts | 294° |
| 2026-05-01 14:09 | 40.81798 | -3.69783 | 34157 ft | 424 kts | 294° |
| 2026-05-01 14:10 | 40.84432 | -3.76763 | 34155 ft | 424 kts | 294° |
| 2026-05-01 14:10 | 40.87071 | -3.83744 | 34159 ft | 425 kts | 294° |
| 2026-05-01 14:11 | 40.89705 | -3.90733 | 34154 ft | 424 kts | 294° |
| 2026-05-01 14:11 | 40.93640 | -4.01220 | 34154 ft | 424 kts | 294° |
| 2026-05-01 14:12 | 40.96255 | -4.08204 | 34152 ft | 424 kts | 294° |
| 2026-05-01 14:12 | 40.98866 | -4.15180 | 34152 ft | 424 kts | 294° |
| 2026-05-01 14:13 | 41.01473 | -4.22154 | 34145 ft | 423 kts | 294° |
| 2026-05-01 14:13 | 41.04079 | -4.29149 | 34144 ft | 423 kts | 294° |
| 2026-05-01 14:14 | 41.06677 | -4.36161 | 34139 ft | 425 kts | 293° |
| 2026-05-01 14:14 | 41.09277 | -4.43172 | 34134 ft | 426 kts | 293° |
| 2026-05-01 14:15 | 41.11878 | -4.50189 | 34130 ft | 426 kts | 293° |
| 2026-05-01 14:15 | 41.14479 | -4.57255 | 34130 ft | 426 kts | 293° |
| 2026-05-01 14:16 | 41.17064 | -4.64287 | 34131 ft | 422 kts | 293° |
| 2026-05-01 14:16 | 41.19636 | -4.71291 | 34131 ft | 422 kts | 293° |
| 2026-05-01 14:17 | 41.22195 | -4.78296 | 34128 ft | 422 kts | 293° |
| 2026-05-01 14:17 | 41.24750 | -4.85310 | 34146 ft | 422 kts | 292° |
| 2026-05-01 14:18 | 41.27311 | -4.92355 | 34134 ft | 424 kts | 292° |
| 2026-05-01 14:18 | 41.29443 | -4.98217 | 34133 ft | 422 kts | 292° |
| 2026-05-01 14:19 | 41.32402 | -5.06354 | 34133 ft | 419 kts | 292° |
| 2026-05-01 14:19 | 41.34889 | -5.13242 | 34133 ft | 419 kts | 292° |
| 2026-05-01 14:20 | 41.38646 | -5.23693 | 34130 ft | 419 kts | 292° |
| 2026-05-01 14:21 | 41.41143 | -5.30640 | 34141 ft | 418 kts | 292° |
| 2026-05-01 14:21 | 41.43646 | -5.37619 | 34131 ft | 415 kts | 292° |
| 2026-05-01 14:22 | 41.47370 | -5.48061 | 34137 ft | 416 kts | 292° |
| 2026-05-01 14:22 | 41.49849 | -5.55043 | 34133 ft | 417 kts | 292° |
| 2026-05-01 14:23 | 41.52086 | -5.62142 | 34142 ft | 413 kts | 282° |